createdAt,value
2022-08-23T00:01:31.178Z,69.34
2022-08-23T00:03:34.413Z,69.22
2022-08-23T00:05:37.341Z,70.98
2022-08-23T00:07:41.017Z,71.68
2022-08-23T00:09:44.304Z,73.41
2022-08-23T00:11:50.909Z,72.32
2022-08-23T00:13:53.874Z,71.12
2022-08-23T00:15:58.013Z,70.45
2022-08-23T00:18:01.543Z,70.59
2022-08-23T00:20:05.295Z,71.93
2022-08-23T00:22:09.377Z,72.10
2022-08-23T00:24:13.631Z,71.96
2022-08-23T00:26:16.467Z,72.49
2022-08-23T00:28:19.263Z,73.01
2022-08-23T00:30:22.174Z,73.23
2022-08-23T00:32:29.058Z,72.48
2022-08-23T00:34:32.243Z,73.39
2022-08-23T00:36:35.480Z,73.40
2022-08-23T00:38:38.637Z,75.13
2022-08-23T00:40:43.278Z,72.85
2022-08-23T00:43:17.421Z,73.14
2022-08-23T00:45:42.463Z,72.97
2022-08-23T00:47:47.569Z,75.71
2022-08-23T00:49:57.272Z,74.76
2022-08-23T00:52:07.501Z,76.55
2022-08-23T00:54:11.552Z,75.88
2022-08-23T00:56:18.300Z,74.84
2022-08-23T00:58:23.158Z,74.80
2022-08-23T01:00:27.699Z,73.49
2022-08-23T01:02:30.595Z,74.11
2022-08-23T01:04:40.585Z,72.64
2022-08-23T01:06:51.512Z,72.47
2022-08-23T01:09:00.920Z,73.63
2022-08-23T01:11:08.842Z,74.24
2022-08-23T01:13:16.691Z,73.84
2022-08-23T01:15:24.291Z,75.30
2022-08-23T01:17:31.050Z,73.43
2022-08-23T01:19:38.666Z,75.84
2022-08-23T01:21:47.952Z,75.91
2022-08-23T01:23:56.142Z,77.03
2022-08-23T01:25:59.397Z,77.37
2022-08-23T01:28:02.329Z,75.32
2022-08-23T01:30:06.900Z,77.54
2022-08-23T01:32:11.473Z,78.63
2022-08-23T01:34:18.210Z,80.65
2022-08-23T01:36:22.086Z,76.93
2022-08-23T01:38:28.003Z,78.11
2022-08-23T01:40:38.394Z,78.96
2022-08-23T01:42:42.994Z,77.63
2022-08-23T01:44:47.896Z,80.04
2022-08-23T01:46:50.947Z,79.79
2022-08-23T01:49:00.690Z,78.08
2022-08-23T01:51:06.666Z,80.46
2022-08-23T01:53:11.198Z,81.15
2022-08-23T01:55:18.039Z,78.92
2022-08-23T01:57:22.964Z,79.46
2022-08-23T01:59:27.624Z,76.45
2022-08-23T02:01:31.869Z,76.96
2022-08-23T02:03:37.199Z,78.77
2022-08-23T02:05:42.732Z,80.37
2022-08-23T02:07:47.489Z,79.98
2022-08-23T02:09:50.341Z,80.78
2022-08-23T02:11:53.171Z,78.68
2022-08-23T02:14:00.360Z,78.46
2022-08-23T02:16:10.154Z,78.90
2022-08-23T02:18:19.325Z,78.68
2022-08-23T02:20:22.455Z,78.44
2022-08-23T02:22:25.262Z,79.52
2022-08-23T02:24:28.367Z,79.71
2022-08-23T02:26:31.575Z,79.67
2022-08-23T02:28:34.737Z,81.17
2022-08-23T02:30:40.106Z,82.26
2022-08-23T02:32:45.645Z,87.22
2022-08-23T02:35:04.912Z,89.55
2022-08-23T02:37:12.683Z,90.42
2022-08-23T02:39:17.142Z,88.09
2022-08-23T02:41:20.562Z,86.32
2022-08-23T02:43:23.550Z,84.54
2022-08-23T02:45:26.575Z,84.06
2022-08-23T02:47:31.333Z,83.77
2022-08-23T02:49:44.480Z,82.91
2022-08-23T02:51:47.389Z,83.74
2022-08-23T02:53:50.548Z,83.39
2022-08-23T02:55:58.551Z,83.70
2022-08-23T02:58:01.570Z,83.35
2022-08-23T03:00:06.909Z,82.63
2022-08-23T03:02:09.798Z,81.44
2022-08-23T03:04:18.434Z,84.03
2022-08-23T03:06:25.660Z,87.08
2022-08-23T03:08:29.083Z,82.86
2022-08-23T03:10:32.267Z,84.92
2022-08-23T03:12:37.568Z,88.38
2022-08-23T03:14:41.071Z,87.83
2022-08-23T03:16:44.153Z,89.95
2022-08-23T03:18:49.927Z,85.70
2022-08-23T03:20:54.162Z,86.59
2022-08-23T03:22:57.268Z,86.92
2022-08-23T03:25:01.465Z,89.18
2022-08-23T03:27:16.092Z,88.61
2022-08-23T03:29:20.553Z,88.89
2022-08-23T03:31:37.743Z,88.38
2022-08-23T03:33:45.843Z,88.62
2022-08-23T03:35:49.934Z,87.60
2022-08-23T03:37:55.400Z,88.85
2022-08-23T03:39:59.321Z,89.45
2022-08-23T03:42:02.502Z,89.60
2022-08-23T03:44:08.599Z,89.25
2022-08-23T03:46:23.022Z,88.29
2022-08-23T03:48:29.865Z,87.13
2022-08-23T03:50:32.627Z,88.38
2022-08-23T03:52:35.440Z,89.96
2022-08-23T03:54:40.290Z,90.35
2022-08-23T03:56:53.763Z,90.96
2022-08-23T03:58:58.265Z,90.02
2022-08-23T04:01:01.432Z,93.17
2022-08-23T04:03:04.471Z,95.18
2022-08-23T04:05:12.423Z,94.84
2022-08-23T04:07:55.129Z,94.38
2022-08-23T04:10:01.767Z,94.24
2022-08-23T04:12:11.940Z,92.92
2022-08-23T04:14:21.132Z,93.36
2022-08-23T04:16:24.023Z,93.58
2022-08-23T04:18:30.048Z,92.46
2022-08-23T04:20:33.106Z,91.54
2022-08-23T04:22:39.731Z,90.94
2022-08-23T04:24:43.692Z,91.02
2022-08-23T04:26:49.510Z,91.93
2022-08-23T04:28:53.245Z,91.36
2022-08-23T04:30:56.287Z,91.71
2022-08-23T04:33:01.634Z,91.28
2022-08-23T04:35:08.074Z,93.26
2022-08-23T04:37:11.724Z,98.72
2022-08-23T04:39:14.520Z,100.00
2022-08-23T04:41:35.566Z,100.00
2022-08-23T04:43:40.046Z,98.63
2022-08-23T04:45:43.468Z,94.28
2022-08-23T04:47:56.525Z,93.26
2022-08-23T04:49:59.351Z,95.79
2022-08-23T04:52:02.143Z,94.81
2022-08-23T04:54:07.791Z,94.87
2022-08-23T04:56:36.923Z,93.05
2022-08-23T04:58:41.595Z,93.30
2022-08-23T05:00:47.177Z,94.02
2022-08-23T05:02:56.412Z,94.69
2022-08-23T05:05:00.434Z,94.24
2022-08-23T05:07:04.064Z,92.25
2022-08-23T05:09:06.990Z,91.04
2022-08-23T05:11:12.018Z,90.81
2022-08-23T05:13:17.061Z,92.96
2022-08-23T05:15:21.529Z,94.67
2022-08-23T05:17:31.624Z,94.31
2022-08-23T05:19:35.170Z,92.94
2022-08-23T05:21:42.452Z,92.53
2022-08-23T05:23:50.923Z,92.30
2022-08-23T05:25:59.371Z,91.25
2022-08-23T05:28:10.562Z,93.68
2022-08-23T05:30:16.635Z,92.44
2022-08-23T05:32:21.683Z,91.52
2022-08-23T05:34:25.482Z,91.17
2022-08-23T05:36:31.172Z,89.62
2022-08-23T05:38:35.029Z,90.96
2022-08-23T05:40:38.398Z,91.57
2022-08-23T05:42:45.821Z,89.47
2022-08-23T05:44:48.605Z,91.14
2022-08-23T05:46:53.169Z,91.30
2022-08-23T05:49:15.598Z,90.82
2022-08-23T05:51:26.247Z,90.57
2022-08-23T05:53:29.465Z,89.29
2022-08-23T05:55:34.957Z,88.50
2022-08-23T05:57:52.218Z,87.54
2022-08-23T05:59:55.624Z,89.46
2022-08-23T06:01:58.652Z,89.85
2022-08-23T06:04:01.697Z,90.51
2022-08-23T06:06:06.958Z,89.55
2022-08-23T06:08:09.944Z,89.87
2022-08-23T06:10:15.827Z,91.09
2022-08-23T06:12:22.243Z,90.83
2022-08-23T06:14:25.298Z,91.24
2022-08-23T06:16:30.860Z,90.46
2022-08-23T06:18:33.992Z,91.62
2022-08-23T06:21:02.038Z,90.13
2022-08-23T06:23:16.927Z,89.61
2022-08-23T06:25:20.492Z,88.38
2022-08-23T06:27:29.539Z,88.01
2022-08-23T06:29:32.825Z,87.54
2022-08-23T06:31:55.843Z,86.88
2022-08-23T06:34:04.405Z,87.11
2022-08-23T06:36:26.099Z,85.96
2022-08-23T06:38:41.995Z,85.81
2022-08-23T06:41:07.464Z,85.08
2022-08-23T06:43:37.407Z,83.99
2022-08-23T06:45:55.110Z,83.02
2022-08-23T06:48:01.224Z,83.36
2022-08-23T06:50:05.456Z,84.12
2022-08-23T06:52:28.323Z,82.43
2022-08-23T06:54:37.773Z,81.93
2022-08-23T06:56:56.734Z,80.69
2022-08-23T06:59:09.988Z,79.25
2022-08-23T07:01:45.563Z,76.10
2022-08-23T07:04:13.997Z,73.32
2022-08-23T07:06:44.949Z,72.52
2022-08-23T07:08:47.769Z,72.13
2022-08-23T07:10:53.675Z,70.55
2022-08-23T07:12:57.119Z,70.02
2022-08-23T07:15:00.137Z,70.16
2022-08-23T07:17:03.616Z,69.47
2022-08-23T07:19:07.560Z,69.49
2022-08-23T07:21:10.505Z,69.21
2022-08-23T07:23:17.547Z,66.97
2022-08-23T07:25:20.690Z,66.41
2022-08-23T07:27:29.336Z,65.59
2022-08-23T07:29:39.590Z,65.56
2022-08-23T07:31:44.586Z,64.62
2022-08-23T07:33:48.824Z,64.70
2022-08-23T07:35:55.778Z,63.40
2022-08-23T07:37:59.210Z,63.96
2022-08-23T07:40:08.761Z,64.28
2022-08-23T07:42:23.652Z,61.97
2022-08-23T07:44:31.653Z,61.34
2022-08-23T07:46:39.739Z,60.89
2022-08-23T07:48:53.971Z,60.41
2022-08-23T07:51:07.848Z,61.27
2022-08-23T07:53:10.656Z,61.35
2022-08-23T07:55:13.690Z,59.84
2022-08-23T07:57:54.923Z,58.88
2022-08-23T08:00:09.523Z,57.33
2022-08-23T08:02:28.747Z,56.49
2022-08-23T08:04:31.821Z,55.15
2022-08-23T08:06:37.105Z,54.87
2022-08-23T08:08:41.421Z,53.12
2022-08-23T08:10:44.263Z,51.97
2022-08-23T08:12:47.360Z,52.38
2022-08-23T08:14:55.096Z,52.95
2022-08-23T08:17:04.582Z,51.85
2022-08-23T08:19:22.613Z,51.97
2022-08-23T08:21:45.412Z,52.40
2022-08-23T08:24:09.823Z,51.95
2022-08-23T08:26:29.071Z,50.35
2022-08-23T08:28:34.266Z,48.74
2022-08-23T08:30:37.000Z,46.21
2022-08-23T08:32:47.200Z,46.47
2022-08-23T08:34:51.018Z,45.19
2022-08-23T08:36:57.986Z,45.66
2022-08-23T08:39:02.724Z,46.37
2022-08-23T08:41:12.620Z,44.92
2022-08-23T08:43:31.320Z,44.67
2022-08-23T08:45:58.719Z,44.19
2022-08-23T08:48:12.718Z,43.52
2022-08-23T08:50:27.431Z,42.82
2022-08-23T08:52:39.186Z,42.66
2022-08-23T08:54:53.377Z,42.55
2022-08-23T08:57:01.218Z,41.45
2022-08-23T08:59:08.427Z,40.52
2022-08-23T09:01:11.776Z,39.41
2022-08-23T09:03:21.087Z,39.04
2022-08-23T09:05:31.480Z,38.38
2022-08-23T09:07:51.409Z,37.28
2022-08-23T09:10:16.751Z,37.36
2022-08-23T09:12:51.979Z,37.85
2022-08-23T09:15:06.814Z,37.88
2022-08-23T09:17:20.843Z,36.57
2022-08-23T09:19:26.384Z,36.52
2022-08-23T09:21:41.813Z,35.74
2022-08-23T09:23:47.387Z,36.29
2022-08-23T09:26:03.824Z,35.62
2022-08-23T09:28:09.638Z,35.26
2022-08-23T09:30:15.005Z,35.10
2022-08-23T09:32:28.695Z,34.96
2022-08-23T09:34:43.739Z,34.37
2022-08-23T09:36:52.248Z,33.74
2022-08-23T09:38:56.839Z,33.64
2022-08-23T09:41:01.572Z,34.10
2022-08-23T09:43:11.273Z,33.70
2022-08-23T09:45:29.756Z,34.70
2022-08-23T09:47:44.524Z,34.25
2022-08-23T09:49:51.466Z,34.18
2022-08-23T09:51:56.297Z,33.78
2022-08-23T09:54:08.135Z,33.07
2022-08-23T09:56:16.597Z,32.92
2022-08-23T09:58:24.612Z,33.02
2022-08-23T10:00:30.318Z,32.70
2022-08-23T10:02:36.121Z,32.91
2022-08-23T10:04:59.311Z,32.76
2022-08-23T10:07:02.371Z,32.67
2022-08-23T10:09:07.723Z,32.19
2022-08-23T10:11:18.929Z,31.86
2022-08-23T10:13:23.191Z,30.59
2022-08-23T10:15:37.026Z,31.13
2022-08-23T10:17:51.033Z,30.61
2022-08-23T10:20:04.943Z,31.24
2022-08-23T10:22:16.140Z,30.39
2022-08-23T10:24:43.500Z,30.42
2022-08-23T10:26:54.742Z,29.03
2022-08-23T10:29:25.736Z,29.87
2022-08-23T10:31:40.578Z,29.43
2022-08-23T10:33:50.469Z,28.38
2022-08-23T10:36:04.581Z,28.69
2022-08-23T10:38:37.737Z,28.36
2022-08-23T10:40:47.369Z,28.25
2022-08-23T10:43:04.450Z,27.29
2022-08-23T10:45:22.583Z,27.05
2022-08-23T10:47:34.810Z,26.82
2022-08-23T10:49:42.097Z,27.51
2022-08-23T10:51:51.830Z,27.58
2022-08-23T10:54:00.552Z,26.95
2022-08-23T10:56:04.933Z,26.99
2022-08-23T10:58:23.993Z,26.74
2022-08-23T11:00:29.204Z,26.91
2022-08-23T11:02:39.323Z,27.09
2022-08-23T11:05:03.206Z,27.02
2022-08-23T11:07:20.684Z,26.56
2022-08-23T11:09:50.999Z,25.78
2022-08-23T11:12:12.940Z,26.38
2022-08-23T11:14:29.123Z,26.24
2022-08-23T11:16:32.716Z,26.24
2022-08-23T11:18:40.774Z,25.22
2022-08-23T11:21:04.349Z,24.78
2022-08-23T11:23:17.443Z,24.64
2022-08-23T11:25:41.965Z,24.31
2022-08-23T11:27:45.722Z,24.05
2022-08-23T11:29:51.121Z,24.30
2022-08-23T11:32:41.516Z,23.90
2022-08-23T11:34:53.084Z,24.77
2022-08-23T11:37:44.352Z,23.57
2022-08-23T11:40:16.074Z,23.25
2022-08-23T11:42:21.132Z,23.33
2022-08-23T11:44:28.336Z,23.18
2022-08-23T11:46:35.741Z,24.60
2022-08-23T11:48:50.826Z,24.40
2022-08-23T11:51:14.010Z,25.80
2022-08-23T11:53:31.649Z,23.67
2022-08-23T11:56:06.696Z,22.97
2022-08-23T11:58:23.915Z,22.49
2022-08-23T12:00:32.376Z,22.57
2022-08-23T12:02:47.723Z,21.80
2022-08-23T12:04:55.522Z,22.26
2022-08-23T12:07:03.161Z,22.05
2022-08-23T12:09:12.244Z,22.31
2022-08-23T12:11:19.455Z,22.25
2022-08-23T12:13:46.581Z,21.75
2022-08-23T12:16:28.892Z,21.84
2022-08-23T12:18:34.569Z,22.75
2022-08-23T12:20:38.399Z,22.26
2022-08-23T12:23:02.150Z,23.15
2022-08-23T12:25:08.613Z,22.34
2022-08-23T12:27:26.580Z,21.81
2022-08-23T12:29:39.575Z,21.73
2022-08-23T12:31:54.321Z,21.77
2022-08-23T12:34:21.230Z,21.94
2022-08-23T12:36:34.704Z,21.48
2022-08-23T12:38:53.729Z,20.92
2022-08-23T12:40:56.914Z,20.72
2022-08-23T12:43:11.871Z,20.69
2022-08-23T12:45:25.057Z,20.59
2022-08-23T12:47:28.213Z,20.78
2022-08-23T12:49:33.257Z,20.78
2022-08-23T12:51:42.094Z,20.88
2022-08-23T12:53:46.075Z,20.88
2022-08-23T12:55:52.313Z,20.52
2022-08-23T12:57:58.087Z,19.82
2022-08-23T13:00:18.460Z,19.71
2022-08-23T13:02:26.789Z,19.87
2022-08-23T13:04:30.718Z,19.71
2022-08-23T13:06:40.494Z,20.01
2022-08-23T13:08:52.442Z,19.78
2022-08-23T13:10:56.903Z,20.04
2022-08-23T13:13:00.805Z,19.18
2022-08-23T13:15:07.122Z,19.25
2022-08-23T13:17:22.975Z,19.39
2022-08-23T13:19:28.227Z,19.47
2022-08-23T13:21:39.492Z,19.43
2022-08-23T13:23:42.982Z,19.03
2022-08-23T13:25:45.814Z,18.82
2022-08-23T13:27:54.433Z,19.09
2022-08-23T13:29:59.512Z,19.05
2022-08-23T13:32:06.900Z,19.18
2022-08-23T13:34:09.687Z,18.93
2022-08-23T13:36:16.699Z,19.30
2022-08-23T13:38:24.425Z,18.68
2022-08-23T13:40:30.911Z,19.46
2022-08-23T13:42:37.482Z,19.04
2022-08-23T13:44:40.608Z,18.83
2022-08-23T13:46:46.659Z,19.00
2022-08-23T13:48:55.572Z,18.48
2022-08-23T13:51:21.940Z,18.75
2022-08-23T13:53:24.782Z,18.24
2022-08-23T13:55:29.186Z,18.23
2022-08-23T13:57:32.255Z,17.96
2022-08-23T13:59:38.353Z,18.59
2022-08-23T14:01:41.218Z,18.29
2022-08-23T14:03:44.064Z,18.39
2022-08-23T14:05:48.173Z,18.95
2022-08-23T14:07:52.914Z,20.58
2022-08-23T14:09:57.177Z,19.63
2022-08-23T14:12:03.092Z,19.15
2022-08-23T14:14:06.884Z,18.99
2022-08-23T14:18:32.996Z,18.33
2022-08-23T14:20:44.055Z,18.83
2022-08-23T14:22:49.833Z,18.41
2022-08-23T14:24:52.592Z,18.33
2022-08-23T14:26:55.973Z,18.82
2022-08-23T14:28:58.797Z,18.67
2022-08-23T14:31:02.595Z,18.78
2022-08-23T14:33:06.321Z,18.87
2022-08-23T14:35:11.083Z,18.64
2022-08-23T14:38:01.923Z,18.68
2022-08-23T14:39:38.302Z,18.89
2022-08-23T14:41:41.096Z,18.61
2022-08-23T14:43:43.936Z,18.42
2022-08-23T14:45:46.915Z,18.76
2022-08-23T14:47:49.813Z,18.86
2022-08-23T14:49:54.029Z,18.58
2022-08-23T14:51:57.131Z,18.22
2022-08-23T14:54:00.599Z,18.89
2022-08-23T14:56:20.464Z,18.39
2022-08-23T14:58:26.139Z,18.16
2022-08-23T15:00:29.157Z,18.33
2022-08-23T15:02:32.020Z,18.20
2022-08-23T15:04:35.151Z,18.13
2022-08-23T15:07:00.491Z,17.84
2022-08-23T15:09:03.482Z,18.32
2022-08-23T15:13:35.476Z,18.31
2022-08-23T15:15:40.469Z,18.03
2022-08-23T15:17:51.923Z,18.25
2022-08-23T15:19:54.927Z,17.74
2022-08-23T15:21:58.090Z,17.35
2022-08-23T15:24:01.058Z,17.51
2022-08-23T15:26:04.838Z,17.88
2022-08-23T15:28:13.238Z,17.62
2022-08-23T15:30:16.986Z,17.92
2022-08-23T15:32:22.554Z,17.48
2022-08-23T15:34:25.975Z,17.99
2022-08-23T15:36:29.107Z,17.31
2022-08-23T15:38:32.628Z,18.62
2022-08-23T15:40:35.575Z,18.09
2022-08-23T15:42:38.663Z,18.25
2022-08-23T15:44:42.826Z,17.90
2022-08-23T15:46:48.288Z,17.46
2022-08-23T15:48:56.286Z,17.83
2022-08-23T15:51:00.479Z,17.76
2022-08-23T15:53:03.750Z,18.07
2022-08-23T15:55:08.114Z,18.05
2022-08-23T15:57:15.835Z,17.23
2022-08-23T15:59:21.501Z,16.82
2022-08-23T16:01:27.845Z,16.92
2022-08-23T16:03:30.899Z,17.13
2022-08-23T16:05:34.037Z,17.15
2022-08-23T16:07:37.334Z,16.98
2022-08-23T16:09:40.874Z,16.89
2022-08-23T16:11:43.920Z,16.93
2022-08-23T16:13:49.690Z,16.90
2022-08-23T16:15:56.634Z,16.85
2022-08-23T16:18:00.913Z,17.00
2022-08-23T16:20:05.295Z,16.55
2022-08-23T16:22:08.462Z,16.83
2022-08-23T16:24:11.539Z,16.71
2022-08-23T16:26:18.132Z,16.27
2022-08-23T16:28:24.462Z,16.84
2022-08-23T16:30:29.066Z,16.26
2022-08-23T16:32:31.902Z,16.23
2022-08-23T16:34:36.937Z,16.43
2022-08-23T16:36:41.239Z,17.17
2022-08-23T16:38:44.484Z,16.60
2022-08-23T16:40:47.249Z,17.24
2022-08-23T16:42:50.197Z,17.19
2022-08-23T16:44:53.045Z,17.20
2022-08-23T16:46:56.386Z,17.52
2022-08-23T16:48:59.248Z,17.05
2022-08-23T16:51:03.474Z,16.98
2022-08-23T16:53:07.479Z,17.23
2022-08-23T16:55:12.731Z,17.02
2022-08-23T16:57:17.653Z,16.96
2022-08-23T16:59:20.437Z,16.93
2022-08-23T17:01:23.832Z,16.92
2022-08-23T17:03:27.497Z,17.35
2022-08-23T17:05:30.334Z,17.55
2022-08-23T17:07:34.558Z,17.39
2022-08-23T17:09:37.343Z,17.44
2022-08-23T17:11:41.817Z,17.47
2022-08-23T17:13:44.754Z,17.34
2022-08-23T17:15:47.630Z,17.38
2022-08-23T17:17:51.222Z,18.22
2022-08-23T17:19:54.193Z,18.30
2022-08-23T17:21:57.045Z,18.15
2022-08-23T17:24:01.549Z,18.29
2022-08-23T17:26:04.330Z,18.54
2022-08-23T17:28:07.203Z,18.42
2022-08-23T17:30:14.167Z,18.93
2022-08-23T17:32:17.006Z,18.95
2022-08-23T17:34:19.853Z,18.87
2022-08-23T17:36:34.299Z,19.04
2022-08-23T17:38:37.222Z,19.35
2022-08-23T17:40:41.834Z,19.90
2022-08-23T17:42:46.106Z,20.33
2022-08-23T17:44:49.009Z,20.99
2022-08-23T17:46:52.117Z,21.44
2022-08-23T17:48:55.009Z,22.16
2022-08-23T17:50:59.670Z,22.87
2022-08-23T17:53:04.419Z,22.84
2022-08-23T17:55:10.654Z,23.41
2022-08-23T17:57:15.019Z,24.48
2022-08-23T17:59:19.473Z,24.88
2022-08-23T18:01:22.835Z,25.35
2022-08-23T18:03:25.730Z,25.91
2022-08-23T18:05:30.487Z,25.81
2022-08-23T18:07:33.407Z,26.31
2022-08-23T18:09:40.034Z,26.72
2022-08-23T18:11:51.404Z,27.21
2022-08-23T18:13:55.624Z,27.36
2022-08-23T18:15:58.439Z,27.83
2022-08-23T18:18:02.342Z,28.22
2022-08-23T18:20:07.309Z,28.58
2022-08-23T18:22:10.410Z,28.75
2022-08-23T18:24:14.348Z,29.18
2022-08-23T18:26:31.077Z,29.51
2022-08-23T18:28:34.079Z,29.89
2022-08-23T18:30:41.364Z,30.10
2022-08-23T18:32:44.785Z,30.16
2022-08-23T18:34:47.567Z,31.01
2022-08-23T18:36:50.615Z,31.26
2022-08-23T18:38:53.406Z,31.99
2022-08-23T18:40:56.212Z,32.24
2022-08-23T18:42:59.239Z,32.90
2022-08-23T18:45:04.519Z,33.43
2022-08-23T18:47:09.784Z,33.76
2022-08-23T18:49:13.605Z,34.26
2022-08-23T18:51:18.007Z,33.78
2022-08-23T18:53:22.130Z,34.61
2022-08-23T18:55:25.168Z,34.86
2022-08-23T18:57:27.944Z,34.94
2022-08-23T18:59:30.840Z,34.92
2022-08-23T19:01:36.978Z,35.35
2022-08-23T19:03:41.191Z,36.23
2022-08-23T19:05:44.420Z,35.87
2022-08-23T19:07:47.225Z,36.10
2022-08-23T19:09:50.651Z,35.58
2022-08-23T19:11:53.556Z,36.57
2022-08-23T19:13:57.182Z,36.44
2022-08-23T19:16:00.053Z,36.85
2022-08-23T19:18:04.206Z,37.25
2022-08-23T19:20:09.608Z,37.35
2022-08-23T19:22:12.673Z,37.91
2022-08-23T19:24:15.489Z,38.27
2022-08-23T19:26:23.606Z,38.31
2022-08-23T19:28:26.357Z,37.42
2022-08-23T19:30:29.143Z,38.02
2022-08-23T19:32:34.401Z,37.94
2022-08-23T19:34:37.185Z,38.67
2022-08-23T19:36:56.748Z,37.56
2022-08-23T19:39:03.869Z,37.54
2022-08-23T19:41:06.742Z,37.94
2022-08-23T19:43:10.069Z,38.92
2022-08-23T19:45:13.544Z,39.24
2022-08-23T19:47:19.637Z,39.44
2022-08-23T19:49:23.277Z,39.09
2022-08-23T19:51:26.258Z,39.49
2022-08-23T19:53:30.386Z,39.53
2022-08-23T19:55:34.369Z,39.82
2022-08-23T19:57:38.472Z,40.06
2022-08-23T19:59:41.439Z,39.69
2022-08-23T20:01:44.462Z,39.84
2022-08-23T20:03:47.303Z,40.03
2022-08-23T20:05:51.538Z,39.99
2022-08-23T20:07:54.879Z,39.77
2022-08-23T20:09:58.922Z,40.17
2022-08-23T20:12:02.260Z,39.60
2022-08-23T20:14:06.904Z,40.27
2022-08-23T20:16:09.695Z,40.21
2022-08-23T20:18:12.498Z,40.32
2022-08-23T20:20:15.223Z,40.34
2022-08-23T20:22:35.576Z,40.54
2022-08-23T20:24:50.766Z,40.32
2022-08-23T20:26:55.367Z,40.45
2022-08-23T20:29:00.153Z,40.13
2022-08-23T20:31:07.448Z,40.52
2022-08-23T20:33:10.416Z,40.72
2022-08-23T20:35:13.519Z,40.82
2022-08-23T20:37:16.300Z,40.86
2022-08-23T20:39:23.756Z,40.86
2022-08-23T20:41:27.809Z,40.65
2022-08-23T20:43:33.650Z,41.23
2022-08-23T20:45:36.409Z,40.96
2022-08-23T20:47:40.284Z,40.89
2022-08-23T20:49:43.136Z,41.06
2022-08-23T20:51:46.446Z,41.21
2022-08-23T20:53:50.572Z,41.15
2022-08-23T20:55:53.935Z,41.48
2022-08-23T20:57:56.764Z,41.11
2022-08-23T21:00:01.261Z,41.72
2022-08-23T21:02:04.182Z,41.60
2022-08-23T21:04:07.805Z,41.77
2022-08-23T21:06:20.086Z,41.64
2022-08-23T21:08:23.706Z,42.20
2022-08-23T21:10:28.170Z,42.48
2022-08-23T21:12:30.955Z,42.46
2022-08-23T21:14:33.774Z,42.64
2022-08-23T21:16:37.984Z,42.75
2022-08-23T21:18:41.586Z,42.72
2022-08-23T21:20:44.391Z,42.64
2022-08-23T21:22:47.219Z,42.53
2022-08-23T21:24:50.706Z,42.69
2022-08-23T21:26:53.512Z,42.01
2022-08-23T21:28:56.245Z,42.61
2022-08-23T21:31:05.753Z,42.91
2022-08-23T21:33:09.950Z,42.39
2022-08-23T21:35:13.768Z,43.12
2022-08-23T21:37:16.616Z,43.10
2022-08-23T21:39:19.368Z,43.29
2022-08-23T21:41:35.303Z,42.95
2022-08-23T21:43:38.736Z,42.65
2022-08-23T21:45:43.293Z,43.05
2022-08-23T21:47:46.100Z,42.93
2022-08-23T21:49:50.225Z,43.19
2022-08-23T21:51:54.337Z,43.47
2022-08-23T21:53:57.426Z,43.72
2022-08-23T21:56:00.529Z,43.91
2022-08-23T21:58:03.314Z,43.80
2022-08-23T22:00:09.675Z,43.69
2022-08-23T22:02:15.534Z,43.67
2022-08-23T22:04:18.405Z,44.56
2022-08-23T22:06:22.595Z,44.59
2022-08-23T22:08:25.333Z,43.06
2022-08-23T22:10:28.193Z,44.82
2022-08-23T22:12:31.268Z,44.60
2022-08-23T22:14:34.446Z,44.41
2022-08-23T22:16:37.481Z,44.42
2022-08-23T22:18:40.725Z,44.20
2022-08-23T22:20:43.531Z,44.04
2022-08-23T22:22:47.688Z,44.17
2022-08-23T22:24:50.433Z,44.67
2022-08-23T22:26:53.328Z,44.56
2022-08-23T22:28:57.105Z,45.16
2022-08-23T22:31:01.688Z,44.99
2022-08-23T22:33:04.902Z,44.99
2022-08-23T22:35:10.627Z,45.56
2022-08-23T22:37:13.400Z,45.69
2022-08-23T22:39:17.804Z,45.95
2022-08-23T22:41:23.947Z,45.89
2022-08-23T22:43:28.511Z,45.67
2022-08-23T22:45:31.277Z,45.57
2022-08-23T22:47:34.079Z,45.31
2022-08-23T22:49:36.885Z,45.38
2022-08-23T22:51:39.915Z,45.44
2022-08-23T22:53:45.342Z,45.71
2022-08-23T22:55:52.377Z,45.21
2022-08-23T22:57:55.154Z,46.32
2022-08-23T22:59:58.061Z,45.96
2022-08-23T23:02:03.263Z,46.27
2022-08-23T23:04:08.393Z,46.29
2022-08-23T23:06:11.367Z,46.24
2022-08-23T23:08:28.347Z,46.28
2022-08-23T23:10:31.139Z,46.41
2022-08-23T23:12:35.256Z,46.47
2022-08-23T23:14:38.011Z,46.56
2022-08-23T23:16:41.223Z,47.01
2022-08-23T23:19:05.512Z,50.51
2022-08-23T23:21:08.337Z,50.05
2022-08-23T23:23:14.644Z,49.82
2022-08-23T23:25:17.440Z,49.90
2022-08-23T23:27:20.273Z,49.75
2022-08-23T23:29:25.375Z,49.92
2022-08-23T23:31:28.400Z,48.95
2022-08-23T23:33:31.205Z,48.92
2022-08-23T23:35:35.466Z,48.80
2022-08-23T23:37:38.601Z,49.07
2022-08-23T23:39:41.492Z,49.92
2022-08-23T23:41:44.463Z,49.56
2022-08-23T23:43:47.375Z,50.38
2022-08-23T23:45:51.605Z,51.29
2022-08-23T23:47:54.819Z,51.43
2022-08-23T23:49:57.951Z,51.48
2022-08-23T23:52:01.021Z,50.86
2022-08-23T23:54:03.900Z,50.15
2022-08-23T23:56:13.343Z,51.00
2022-08-23T23:58:16.124Z,51.08
